createdAt,value
2023-08-07T00:00:16.801Z,43010.97
2023-08-07T00:02:43.435Z,42991.00
2023-08-07T00:05:10.090Z,43010.97
2023-08-07T00:07:36.556Z,43024.97
2023-08-07T00:10:04.255Z,43001.00
2023-08-07T00:12:30.687Z,42995.00
2023-08-07T00:14:57.134Z,43006.97
2023-08-07T00:17:23.698Z,42999.00
2023-08-07T00:19:50.177Z,42981.03
2023-08-07T00:22:16.583Z,42985.03
2023-08-07T00:24:43.011Z,42977.03
2023-08-07T00:27:13.402Z,42953.06
2023-08-07T00:29:39.909Z,42989.00
2023-08-07T00:32:07.225Z,42965.06
2023-08-07T00:34:34.127Z,42981.03
2023-08-07T00:37:00.676Z,42981.03
2023-08-07T00:39:28.115Z,42985.03
2023-08-07T00:41:55.048Z,42973.03
2023-08-07T00:44:24.420Z,42981.03
2023-08-07T00:46:51.341Z,42989.00
2023-08-07T00:49:19.851Z,42981.03
2023-08-07T00:51:46.387Z,42987.00
2023-08-07T00:54:16.618Z,42977.03
2023-08-07T00:56:43.132Z,42977.03
2023-08-07T00:59:11.773Z,42993.00
2023-08-07T01:01:38.711Z,42961.06
2023-08-07T01:04:05.915Z,42985.03
2023-08-07T01:06:32.453Z,43001.00
2023-08-07T01:08:59.090Z,42977.03
2023-08-07T01:11:37.631Z,42977.03
2023-08-07T01:14:16.861Z,42987.00
2023-08-07T01:16:57.162Z,42985.03
2023-08-07T01:19:26.382Z,42977.03
2023-08-07T01:22:12.988Z,42987.00
2023-08-07T01:24:41.856Z,42995.00
2023-08-07T01:27:25.904Z,42993.00
2023-08-07T01:29:58.511Z,42997.00
2023-08-07T01:32:43.755Z,42981.03
2023-08-07T01:35:12.992Z,42989.00
2023-08-07T01:37:43.136Z,42985.03
2023-08-07T01:40:12.081Z,42993.00
2023-08-07T01:42:39.274Z,42993.00
2023-08-07T01:45:06.677Z,42987.00
2023-08-07T01:47:33.412Z,43003.00
2023-08-07T01:50:00.968Z,43016.97
2023-08-07T01:52:27.622Z,43010.97
2023-08-07T01:54:54.293Z,43016.97
2023-08-07T01:57:20.771Z,43032.94
2023-08-07T01:59:47.292Z,43038.94
2023-08-07T02:02:13.828Z,43044.94
2023-08-07T02:04:40.555Z,43030.94
2023-08-07T02:07:07.279Z,43048.91
2023-08-07T02:09:33.779Z,43062.91
2023-08-07T02:12:00.819Z,43068.88
2023-08-07T02:14:28.546Z,43072.88
2023-08-07T02:16:55.227Z,43110.84
2023-08-07T02:19:21.926Z,43084.88
2023-08-07T02:21:48.392Z,43100.84
2023-08-07T02:24:14.827Z,43108.84
2023-08-07T02:26:41.267Z,43132.78
2023-08-07T02:29:10.080Z,43142.78
2023-08-07T02:31:36.590Z,43124.81
2023-08-07T02:34:03.120Z,43140.78
2023-08-07T02:36:31.222Z,43164.75
2023-08-07T02:38:57.653Z,43168.75
2023-08-07T02:41:24.066Z,43168.75
2023-08-07T02:43:50.703Z,43184.72
2023-08-07T02:46:17.158Z,43176.72
2023-08-07T02:48:44.887Z,43198.69
2023-08-07T02:51:11.442Z,43188.72
2023-08-07T02:53:37.904Z,43200.69
2023-08-07T02:56:04.614Z,43206.69
2023-08-07T02:58:31.097Z,43216.69
2023-08-07T03:00:57.560Z,43244.63
2023-08-07T03:03:23.999Z,43224.66
2023-08-07T03:05:51.559Z,43214.69
2023-08-07T03:08:18.738Z,43222.66
2023-08-07T03:10:54.658Z,43200.69
2023-08-07T03:13:21.180Z,43212.69
2023-08-07T03:15:50.395Z,43232.66
2023-08-07T03:18:17.645Z,43218.66
2023-08-07T03:20:44.871Z,43212.69
2023-08-07T03:23:12.034Z,43220.66
2023-08-07T03:25:39.079Z,43220.66
2023-08-07T03:28:05.576Z,43222.66
2023-08-07T03:30:32.346Z,43220.66
2023-08-07T03:32:59.223Z,43246.63
2023-08-07T03:35:26.256Z,43224.66
2023-08-07T03:37:55.009Z,43236.66
2023-08-07T03:40:21.520Z,43220.66
2023-08-07T03:42:48.211Z,43232.66
2023-08-07T03:45:15.156Z,43208.69
2023-08-07T03:47:41.759Z,43236.66
2023-08-07T03:50:08.540Z,43208.69
2023-08-07T03:52:35.036Z,43212.69
2023-08-07T03:55:01.583Z,43216.69
2023-08-07T03:57:28.073Z,43196.69
2023-08-07T03:59:55.325Z,43224.66
2023-08-07T04:02:22.269Z,43208.69
2023-08-07T04:04:48.966Z,43218.66
2023-08-07T04:07:15.444Z,43218.66
2023-08-07T04:09:41.895Z,43198.69
2023-08-07T04:12:08.746Z,43196.69
2023-08-07T04:14:35.829Z,43202.69
2023-08-07T04:17:02.277Z,43188.72
2023-08-07T04:19:29.102Z,43192.72
2023-08-07T04:21:55.604Z,43196.69
2023-08-07T04:24:22.031Z,43204.69
2023-08-07T04:26:48.735Z,43188.72
2023-08-07T04:29:15.187Z,43212.69
2023-08-07T04:31:41.599Z,43224.66
2023-08-07T04:34:08.089Z,43194.72
2023-08-07T04:36:34.586Z,43184.72
2023-08-07T04:39:01.586Z,43176.72
2023-08-07T04:41:28.403Z,43196.69
2023-08-07T04:43:54.865Z,43196.69
2023-08-07T04:46:21.391Z,43182.72
2023-08-07T04:48:48.667Z,43172.75
2023-08-07T04:51:16.436Z,43176.72
2023-08-07T04:53:42.917Z,43208.69
2023-08-07T04:56:09.416Z,43176.72
2023-08-07T04:58:35.990Z,43192.72
2023-08-07T05:01:02.616Z,43176.72
2023-08-07T05:03:29.178Z,43180.72
2023-08-07T05:06:02.463Z,43186.72
2023-08-07T05:08:29.122Z,43184.72
2023-08-07T05:10:55.648Z,43186.72
2023-08-07T05:13:22.089Z,43196.69
2023-08-07T05:15:49.159Z,43192.72
2023-08-07T05:18:16.388Z,43194.72
2023-08-07T05:20:43.366Z,43190.72
2023-08-07T05:23:11.385Z,43190.72
2023-08-07T05:25:38.477Z,43208.69
2023-08-07T05:28:05.131Z,43160.75
2023-08-07T05:30:31.760Z,43188.72
2023-08-07T05:32:58.356Z,43204.69
2023-08-07T05:35:25.125Z,43206.69
2023-08-07T05:37:51.552Z,43198.69
2023-08-07T05:40:18.125Z,43206.69
2023-08-07T05:42:45.264Z,43208.69
2023-08-07T05:45:11.846Z,43224.66
2023-08-07T05:47:38.862Z,43196.69
2023-08-07T05:50:05.901Z,43224.66
2023-08-07T05:52:32.340Z,43224.66
2023-08-07T05:54:58.788Z,43236.66
2023-08-07T05:57:25.470Z,43220.66
2023-08-07T05:59:52.173Z,43256.63
2023-08-07T06:02:18.931Z,43264.59
2023-08-07T06:04:46.232Z,43264.59
2023-08-07T06:07:12.900Z,43264.59
2023-08-07T06:09:39.331Z,43240.63
2023-08-07T06:12:06.052Z,43248.63
2023-08-07T06:14:32.490Z,43266.59
2023-08-07T06:16:59.144Z,43252.63
2023-08-07T06:19:31.942Z,43280.59
2023-08-07T06:21:59.414Z,43260.63
2023-08-07T06:24:26.803Z,43268.59
2023-08-07T06:26:53.270Z,43228.66
2023-08-07T06:29:19.733Z,43276.59
2023-08-07T06:31:46.201Z,43256.63
2023-08-07T06:34:12.663Z,43262.59
2023-08-07T06:36:39.121Z,43258.63
2023-08-07T06:39:05.565Z,43282.59
2023-08-07T06:41:32.090Z,43274.59
2023-08-07T06:43:58.845Z,43274.59
2023-08-07T06:46:27.790Z,43292.56
2023-08-07T06:48:54.761Z,43292.56
2023-08-07T06:51:21.235Z,43284.56
2023-08-07T06:53:48.124Z,43298.56
2023-08-07T06:56:14.556Z,43296.56
2023-08-07T06:58:41.036Z,43296.56
2023-08-07T07:01:07.522Z,43288.56
2023-08-07T07:03:34.706Z,43304.56
2023-08-07T07:06:01.420Z,43310.53
2023-08-07T07:08:28.143Z,43308.53
2023-08-07T07:10:54.780Z,43326.53
2023-08-07T07:13:21.360Z,43312.53
2023-08-07T07:15:53.137Z,43288.56
2023-08-07T07:18:19.626Z,43320.53
2023-08-07T07:20:46.058Z,43324.53
2023-08-07T07:23:12.470Z,43322.53
2023-08-07T07:25:39.053Z,43352.47
2023-08-07T07:28:05.543Z,43332.50
2023-08-07T07:30:32.028Z,43332.50
2023-08-07T07:32:58.536Z,43336.50
2023-08-07T07:35:25.339Z,43320.53
2023-08-07T07:37:51.796Z,43368.47
2023-08-07T07:40:18.261Z,43356.47
2023-08-07T07:42:44.674Z,43340.50
2023-08-07T07:45:11.388Z,43376.44
2023-08-07T07:47:38.353Z,43364.47
2023-08-07T07:50:08.355Z,43376.44
2023-08-07T07:52:35.276Z,43370.47
2023-08-07T07:55:01.860Z,43388.44
2023-08-07T07:57:28.397Z,43370.47
2023-08-07T07:59:54.841Z,43378.44
2023-08-07T08:02:23.366Z,43400.41
2023-08-07T08:04:49.983Z,43404.41
2023-08-07T08:07:16.602Z,43392.44
2023-08-07T08:09:43.147Z,43376.44
2023-08-07T08:12:09.829Z,43400.41
2023-08-07T08:14:50.568Z,43384.44
2023-08-07T08:17:22.017Z,43372.44
2023-08-07T08:19:50.928Z,43352.47
2023-08-07T08:22:18.018Z,43378.44
2023-08-07T08:24:44.483Z,43364.47
2023-08-07T08:27:11.173Z,43356.47
2023-08-07T08:29:38.122Z,43372.44
2023-08-07T08:32:04.965Z,43366.47
2023-08-07T08:34:31.445Z,43362.47
2023-08-07T08:36:58.262Z,43342.50
2023-08-07T08:39:25.040Z,43350.47
2023-08-07T08:41:51.550Z,43338.50
2023-08-07T08:44:20.545Z,43348.50
2023-08-07T08:46:50.307Z,43344.50
2023-08-07T08:49:21.785Z,43340.50
2023-08-07T08:51:48.555Z,43322.53
2023-08-07T08:54:15.757Z,43328.50
2023-08-07T08:56:43.647Z,43324.53
2023-08-07T08:59:10.218Z,43312.53
2023-08-07T09:01:37.657Z,43296.56
2023-08-07T09:04:05.965Z,43288.56
2023-08-07T09:06:35.649Z,43292.56
2023-08-07T09:09:03.544Z,43296.56
2023-08-07T09:11:30.225Z,43278.59
2023-08-07T09:13:58.921Z,43290.56
2023-08-07T09:16:28.161Z,43278.59
2023-08-07T09:18:56.357Z,43276.59
2023-08-07T09:21:22.974Z,43288.56
2023-08-07T09:23:49.460Z,43276.59
2023-08-07T09:26:23.612Z,43272.59
2023-08-07T09:28:52.917Z,43256.63
2023-08-07T09:31:21.541Z,43284.56
2023-08-07T09:33:52.124Z,43276.59
2023-08-07T09:36:19.238Z,43288.56
2023-08-07T09:38:50.891Z,43280.59
2023-08-07T09:41:21.191Z,43268.59
2023-08-07T09:43:47.717Z,43262.59
2023-08-07T09:46:14.478Z,43284.56
2023-08-07T09:48:42.886Z,43288.56
2023-08-07T09:51:09.493Z,43268.59
2023-08-07T09:53:36.010Z,43272.59
2023-08-07T09:56:02.624Z,43268.59
2023-08-07T09:58:29.877Z,43268.59
2023-08-07T10:01:00.563Z,43272.59
2023-08-07T10:03:27.773Z,43256.63
2023-08-07T10:05:55.134Z,43236.66
2023-08-07T10:08:22.592Z,43256.63
2023-08-07T10:10:49.062Z,43272.59
2023-08-07T10:13:17.349Z,43240.63
2023-08-07T10:15:45.917Z,43240.63
2023-08-07T10:18:12.808Z,43236.66
2023-08-07T10:20:43.102Z,43214.69
2023-08-07T10:23:11.752Z,43204.69
2023-08-07T10:25:42.365Z,43188.72
2023-08-07T10:28:17.418Z,43184.72
2023-08-07T10:30:44.098Z,43152.78
2023-08-07T10:33:13.086Z,43124.81
2023-08-07T10:35:48.008Z,43106.84
2023-08-07T10:38:14.527Z,43118.81
2023-08-07T10:41:09.499Z,43106.84
2023-08-07T10:43:43.366Z,43112.81
2023-08-07T10:46:15.676Z,43076.88
2023-08-07T10:48:48.134Z,43088.88
2023-08-07T10:51:16.157Z,43104.84
2023-08-07T10:53:51.760Z,43130.81
2023-08-07T10:56:31.708Z,43104.84
2023-08-07T10:58:58.465Z,43100.84
2023-08-07T11:01:28.054Z,43042.94
2023-08-07T11:03:56.783Z,43032.94
2023-08-07T11:06:27.421Z,42993.00
2023-08-07T11:08:54.603Z,42983.03
2023-08-07T11:11:21.483Z,42961.06
2023-08-07T11:13:48.374Z,42923.13
2023-08-07T11:16:15.056Z,42909.13
2023-08-07T11:18:43.219Z,42889.16
2023-08-07T11:21:13.602Z,42855.22
2023-08-07T11:23:40.867Z,42849.22
2023-08-07T11:26:09.077Z,42849.22
2023-08-07T11:28:35.518Z,42855.22
2023-08-07T11:31:02.352Z,42833.25
2023-08-07T11:33:30.203Z,42849.22
2023-08-07T11:35:56.874Z,42893.16
2023-08-07T11:38:49.970Z,42835.25
2023-08-07T11:41:18.194Z,42821.28
2023-08-07T11:43:45.173Z,42819.28
2023-08-07T11:46:13.851Z,42813.28
2023-08-07T11:48:41.928Z,42789.31
2023-08-07T11:51:09.093Z,42781.34
2023-08-07T11:53:37.752Z,42765.34
2023-08-07T11:56:07.276Z,42745.38
2023-08-07T11:58:41.636Z,42741.41
2023-08-07T12:01:12.862Z,42729.41
2023-08-07T12:03:50.811Z,42745.38
2023-08-07T12:06:18.060Z,42729.41
2023-08-07T12:08:44.510Z,42735.41
2023-08-07T12:11:13.700Z,42695.47
2023-08-07T12:13:43.140Z,42669.50
2023-08-07T12:16:10.669Z,42637.56
2023-08-07T12:18:39.692Z,42637.56
2023-08-07T12:21:08.497Z,42621.59
2023-08-07T12:23:36.850Z,42617.59
2023-08-07T12:26:04.753Z,42601.63
2023-08-07T12:28:31.195Z,42557.69
2023-08-07T12:30:58.106Z,42549.72
2023-08-07T12:33:24.845Z,42533.72
2023-08-07T12:35:52.304Z,42513.75
2023-08-07T12:38:18.758Z,42525.75
2023-08-07T12:40:45.411Z,42487.81
2023-08-07T12:43:12.086Z,42485.81
2023-08-07T12:48:08.376Z,42457.84
2023-08-07T12:50:35.383Z,42445.88
2023-08-07T12:53:02.697Z,42449.88
2023-08-07T12:55:30.585Z,42429.91
2023-08-07T12:57:57.976Z,42409.94
2023-08-07T13:00:24.830Z,42372.00
2023-08-07T13:02:52.597Z,42332.06
2023-08-07T13:05:20.873Z,42374.00
2023-08-07T13:07:48.010Z,42342.06
2023-08-07T13:10:18.550Z,42190.31
2023-08-07T13:12:48.650Z,42174.34
2023-08-07T13:15:16.668Z,42132.41
2023-08-07T13:17:44.362Z,42006.66
2023-08-07T13:20:13.810Z,41978.69
2023-08-07T13:22:46.148Z,41944.75
2023-08-07T13:25:14.355Z,41944.75
2023-08-07T13:27:41.259Z,41944.75
2023-08-07T13:30:09.475Z,41858.91
2023-08-07T13:32:37.402Z,41922.78
2023-08-07T13:35:04.337Z,41836.94
2023-08-07T13:37:30.894Z,41763.09
2023-08-07T13:39:57.385Z,41799.03
2023-08-07T13:42:28.452Z,41707.19
2023-08-07T13:44:59.178Z,41711.19
2023-08-07T13:47:27.000Z,41671.25
2023-08-07T13:49:57.250Z,41643.31
2023-08-07T13:52:23.707Z,41631.34
2023-08-07T13:54:51.570Z,41615.38
2023-08-07T13:57:18.005Z,41603.41
2023-08-07T13:59:44.438Z,41579.44
2023-08-07T14:02:11.068Z,41535.53
2023-08-07T14:04:37.522Z,41375.84
2023-08-07T14:07:04.999Z,41268.06
2023-08-07T14:09:31.650Z,41222.16
2023-08-07T14:11:58.396Z,41108.38
2023-08-07T14:14:25.394Z,41076.44
2023-08-07T14:16:51.916Z,41120.34
2023-08-07T14:19:18.908Z,41120.34
2023-08-07T14:21:45.371Z,40819.00
2023-08-07T14:24:11.943Z,40789.06
2023-08-07T14:26:38.491Z,40733.19
2023-08-07T14:29:05.017Z,40643.38
2023-08-07T14:31:31.493Z,40557.56
2023-08-07T14:33:58.065Z,40513.66
2023-08-07T14:36:24.881Z,40535.63
2023-08-07T14:38:51.575Z,40417.88
2023-08-07T14:41:18.992Z,40383.97
2023-08-07T14:43:46.690Z,40366.00
2023-08-07T14:46:13.180Z,40346.06
2023-08-07T14:48:39.654Z,40346.06
2023-08-07T14:51:06.658Z,40332.09
2023-08-07T14:53:33.078Z,40302.16
2023-08-07T14:55:59.916Z,40124.56
2023-08-07T14:58:26.351Z,40134.53
2023-08-07T15:00:56.610Z,40158.50
2023-08-07T15:03:23.160Z,40186.41
2023-08-07T15:05:49.670Z,40194.41
2023-08-07T15:08:18.795Z,40152.50
2023-08-07T15:10:45.280Z,40130.56
2023-08-07T15:13:11.772Z,40154.50
2023-08-07T15:15:38.263Z,40098.63
2023-08-07T15:18:06.408Z,40082.66
2023-08-07T15:20:35.508Z,40064.72
2023-08-07T15:23:03.341Z,40038.78
2023-08-07T15:25:29.789Z,40032.78
2023-08-07T15:27:59.842Z,40038.78
2023-08-07T15:30:27.872Z,40008.84
2023-08-07T15:32:54.663Z,40038.78
2023-08-07T15:35:21.273Z,40078.69
2023-08-07T15:37:47.722Z,40054.72
2023-08-07T15:40:14.159Z,40072.69
2023-08-07T15:42:46.118Z,40116.59
2023-08-07T15:45:13.750Z,40138.53
2023-08-07T15:47:40.347Z,40126.56
2023-08-07T15:50:07.318Z,40106.59
2023-08-07T15:52:34.106Z,40146.50
2023-08-07T15:55:00.521Z,40142.53
2023-08-07T15:57:27.072Z,40118.59
2023-08-07T15:59:53.777Z,40116.59
2023-08-07T16:02:20.472Z,40130.56
2023-08-07T16:04:47.203Z,40074.69
2023-08-07T16:07:13.793Z,40002.84
2023-08-07T16:09:40.215Z,40050.75
2023-08-07T16:12:07.191Z,40054.72
2023-08-07T16:14:36.425Z,40022.81
2023-08-07T16:17:05.797Z,40046.75
2023-08-07T16:19:32.586Z,40066.69
2023-08-07T16:21:59.041Z,40078.69
2023-08-07T16:24:25.513Z,40090.66
2023-08-07T16:26:51.962Z,40098.63
2023-08-07T16:29:19.024Z,40106.59
2023-08-07T16:31:45.601Z,40094.63
2023-08-07T16:34:12.112Z,40102.63
2023-08-07T16:36:38.663Z,40086.66
2023-08-07T16:39:05.148Z,40046.75
2023-08-07T16:41:31.633Z,40080.66
2023-08-07T16:43:58.570Z,40078.69
2023-08-07T16:46:25.030Z,40066.69
2023-08-07T16:48:51.732Z,40078.69
2023-08-07T16:51:19.831Z,40082.66
2023-08-07T16:53:49.705Z,40078.69
2023-08-07T16:56:16.423Z,40092.66
2023-08-07T16:58:45.602Z,40086.66
2023-08-07T17:01:12.817Z,40102.63
2023-08-07T17:03:39.320Z,40102.63
2023-08-07T17:06:05.810Z,40102.63
2023-08-07T17:08:32.539Z,40150.50
2023-08-07T17:10:59.674Z,40102.63
2023-08-07T17:13:26.462Z,40116.59
2023-08-07T17:15:53.303Z,40138.53
2023-08-07T17:18:19.892Z,40124.56
2023-08-07T17:20:46.428Z,40114.59
2023-08-07T17:23:12.849Z,40116.59
2023-08-07T17:25:39.321Z,40134.53
2023-08-07T17:28:06.555Z,40130.56
2023-08-07T17:30:33.305Z,40110.59
2023-08-07T17:33:00.801Z,40114.59
2023-08-07T17:35:27.436Z,40126.56
2023-08-07T17:37:54.141Z,40114.59
2023-08-07T17:40:20.695Z,40090.66
2023-08-07T17:42:47.207Z,40114.59
2023-08-07T17:45:16.036Z,40138.53
2023-08-07T17:47:42.835Z,40156.50
2023-08-07T17:50:12.485Z,40162.47
2023-08-07T17:52:39.715Z,40142.53
2023-08-07T17:55:07.392Z,40138.53
2023-08-07T17:57:34.107Z,40138.53
2023-08-07T18:00:00.659Z,40160.47
2023-08-07T18:02:27.170Z,40158.50
2023-08-07T18:04:53.760Z,40172.44
2023-08-07T18:07:20.322Z,40180.44
2023-08-07T18:09:46.769Z,40194.41
2023-08-07T18:12:13.459Z,40184.44
2023-08-07T18:14:39.906Z,40198.41
2023-08-07T18:17:06.706Z,40224.34
2023-08-07T18:19:33.330Z,40222.34
2023-08-07T18:22:00.773Z,40226.31
2023-08-07T18:24:27.872Z,40246.28
2023-08-07T18:26:55.326Z,40250.28
2023-08-07T18:29:22.133Z,40250.28
2023-08-07T18:31:49.873Z,40254.25
2023-08-07T18:34:17.811Z,40258.25
2023-08-07T18:36:45.188Z,40270.22
2023-08-07T18:39:12.082Z,40254.25
2023-08-07T18:41:38.560Z,40276.22
2023-08-07T18:44:05.029Z,40274.22
2023-08-07T18:46:31.494Z,40316.13
2023-08-07T18:48:57.940Z,40278.22
2023-08-07T18:51:24.374Z,40346.06
2023-08-07T18:53:50.929Z,40356.03
2023-08-07T18:56:17.425Z,40358.03
2023-08-07T18:58:43.888Z,40370.00
2023-08-07T19:01:10.863Z,40366.00
2023-08-07T19:03:37.584Z,40389.94
2023-08-07T19:06:06.303Z,40389.94
2023-08-07T19:08:34.609Z,40425.88
2023-08-07T19:11:01.360Z,40449.81
2023-08-07T19:13:27.905Z,40437.84
2023-08-07T19:15:56.009Z,40445.81
2023-08-07T19:18:22.874Z,40473.75
2023-08-07T19:20:49.414Z,40519.66
2023-08-07T19:23:16.083Z,40517.66
2023-08-07T19:25:42.642Z,40513.66
2023-08-07T19:28:09.534Z,40553.56
2023-08-07T19:30:36.637Z,40577.53
2023-08-07T19:33:03.165Z,40573.53
2023-08-07T19:35:29.684Z,40611.44
2023-08-07T19:37:56.281Z,40627.41
2023-08-07T19:40:26.001Z,40625.41
2023-08-07T19:42:53.073Z,40641.38
2023-08-07T19:45:19.536Z,40657.34
2023-08-07T19:47:48.104Z,40673.31
2023-08-07T19:50:15.405Z,40671.31
2023-08-07T19:52:41.894Z,40693.28
2023-08-07T19:55:09.254Z,40717.22
2023-08-07T19:57:35.853Z,40719.22
2023-08-07T20:00:02.619Z,40753.13
2023-08-07T20:02:31.700Z,40749.16
2023-08-07T20:04:58.293Z,40749.16
2023-08-07T20:07:25.120Z,40729.19
2023-08-07T20:09:51.823Z,40759.13
2023-08-07T20:12:18.321Z,40745.16
2023-08-07T20:14:44.794Z,40745.16
2023-08-07T20:17:11.651Z,40737.16
2023-08-07T20:19:38.290Z,40753.13
2023-08-07T20:22:05.529Z,40785.06
2023-08-07T20:24:32.210Z,40785.06
2023-08-07T20:26:59.586Z,40777.09
2023-08-07T20:29:27.126Z,40803.03
2023-08-07T20:31:53.640Z,40832.97
2023-08-07T20:34:20.374Z,40809.00
2023-08-07T20:36:47.090Z,40848.94
2023-08-07T20:39:14.257Z,40866.91
2023-08-07T20:41:40.815Z,40862.91
2023-08-07T20:44:07.260Z,40858.91
2023-08-07T20:46:33.911Z,40904.81
2023-08-07T20:49:00.623Z,40926.75
2023-08-07T20:51:27.204Z,40936.75
2023-08-07T20:53:53.749Z,40976.66
2023-08-07T20:56:20.332Z,40968.69
2023-08-07T20:58:46.782Z,40976.66
2023-08-07T21:01:13.292Z,40980.66
2023-08-07T21:03:39.769Z,41008.59
2023-08-07T21:06:06.188Z,41034.53
2023-08-07T21:08:32.676Z,41036.53
2023-08-07T21:10:59.667Z,41038.53
2023-08-07T21:13:26.212Z,41036.53
2023-08-07T21:15:52.724Z,41076.44
2023-08-07T21:18:19.348Z,41076.44
2023-08-07T21:20:45.910Z,41080.44
2023-08-07T21:23:16.228Z,41098.41
2023-08-07T21:25:42.671Z,41116.38
2023-08-07T21:28:10.413Z,41096.41
2023-08-07T21:30:37.001Z,41150.28
2023-08-07T21:33:04.281Z,41144.31
2023-08-07T21:35:30.821Z,41144.31
2023-08-07T21:37:57.240Z,41160.28
2023-08-07T21:40:24.659Z,41168.25
2023-08-07T21:42:51.346Z,41174.25
2023-08-07T21:45:17.927Z,41192.22
2023-08-07T21:47:45.375Z,41176.25
2023-08-07T21:50:12.445Z,41194.22
2023-08-07T21:52:38.977Z,41200.19
2023-08-07T21:55:06.036Z,41182.22
2023-08-07T21:57:33.914Z,41154.28
2023-08-07T22:00:00.525Z,41160.28
2023-08-07T22:02:27.372Z,41162.28
2023-08-07T22:04:54.100Z,41160.28
2023-08-07T22:07:20.602Z,41164.28
2023-08-07T22:09:47.073Z,41152.28
2023-08-07T22:12:13.732Z,41170.25
2023-08-07T22:14:40.290Z,41158.28
2023-08-07T22:17:08.068Z,41156.28
2023-08-07T22:19:34.673Z,41164.28
2023-08-07T22:22:01.402Z,41156.28
2023-08-07T22:24:27.947Z,41162.28
2023-08-07T22:26:54.604Z,41184.22
2023-08-07T22:29:21.054Z,41168.25
2023-08-07T22:31:47.838Z,41148.31
2023-08-07T22:34:14.488Z,41168.25
2023-08-07T22:36:41.000Z,41156.28
2023-08-07T22:39:07.474Z,41156.28
2023-08-07T22:41:34.249Z,41174.25
2023-08-07T22:44:01.317Z,41154.28
2023-08-07T22:46:28.013Z,41160.28
2023-08-07T22:48:54.586Z,41164.28
2023-08-07T22:51:21.072Z,41168.25
2023-08-07T22:53:47.837Z,41188.22
2023-08-07T22:56:14.617Z,41182.22
2023-08-07T22:58:41.351Z,41176.25
2023-08-07T23:01:08.478Z,41184.22
2023-08-07T23:03:35.117Z,41188.22
2023-08-07T23:06:01.802Z,41196.19
2023-08-07T23:08:28.323Z,41192.22
2023-08-07T23:10:54.870Z,41200.19
2023-08-07T23:13:21.529Z,41204.19
2023-08-07T23:15:48.159Z,41188.22
2023-08-07T23:18:14.949Z,41194.22
2023-08-07T23:20:41.414Z,41192.22
2023-08-07T23:23:08.110Z,41198.19
2023-08-07T23:25:35.422Z,41178.25
2023-08-07T23:28:02.682Z,41160.28
2023-08-07T23:30:29.988Z,41180.22
2023-08-07T23:32:56.640Z,41184.22
2023-08-07T23:35:23.227Z,41174.25
2023-08-07T23:37:49.767Z,41188.22
2023-08-07T23:40:16.300Z,41196.19
2023-08-07T23:42:42.796Z,41192.22
2023-08-07T23:45:09.999Z,41180.22
2023-08-07T23:47:36.727Z,41184.22
2023-08-07T23:50:03.466Z,41172.25
2023-08-07T23:52:31.928Z,41174.25
2023-08-07T23:54:58.666Z,41162.28
2023-08-07T23:57:25.352Z,41164.28
2023-08-07T23:59:51.917Z,41154.28
